createdAt,value
2017-11-27T00:00:12.708Z,70.38
2017-11-27T00:02:41.980Z,70.45
2017-11-27T00:05:14.515Z,70.67
2017-11-27T00:07:42.600Z,70.70
2017-11-27T00:10:10.321Z,70.58
2017-11-27T00:12:39.211Z,70.51
2017-11-27T00:15:12.388Z,70.58
2017-11-27T00:17:40.892Z,70.83
2017-11-27T00:20:08.614Z,70.93
2017-11-27T00:22:40.969Z,70.87
2017-11-27T00:25:22.734Z,70.74
2017-11-27T00:27:50.760Z,70.85
2017-11-27T00:30:18.263Z,70.90
2017-11-27T00:32:46.932Z,70.66
2017-11-27T00:35:20.363Z,70.93
2017-11-27T00:37:52.084Z,71.57
2017-11-27T00:40:20.997Z,71.71
2017-11-27T00:42:49.542Z,72.44
2017-11-27T00:45:40.745Z,72.57
2017-11-27T00:48:08.491Z,72.72
2017-11-27T00:50:36.331Z,72.87
2017-11-27T00:53:04.618Z,73.07
2017-11-27T00:55:33.109Z,73.24
2017-11-27T00:58:01.932Z,73.26
2017-11-27T01:00:30.728Z,73.25
2017-11-27T01:02:59.388Z,73.20
2017-11-27T01:05:27.365Z,73.39
2017-11-27T01:07:55.249Z,73.37
2017-11-27T01:10:22.902Z,73.34
2017-11-27T01:12:50.761Z,73.51
2017-11-27T01:15:18.726Z,73.37
2017-11-27T01:17:46.538Z,73.46
2017-11-27T01:20:14.119Z,73.62
2017-11-27T01:22:42.472Z,73.89
2017-11-27T01:25:24.496Z,73.60
2017-11-27T01:27:52.010Z,73.70
2017-11-27T01:30:19.801Z,73.96
2017-11-27T01:32:48.127Z,74.38
2017-11-27T01:41:23.311Z,74.44
2017-11-27T01:44:14.585Z,74.12
2017-11-27T01:46:42.210Z,74.19
2017-11-27T01:49:10.047Z,74.33
2017-11-27T01:51:37.577Z,74.53
2017-11-27T01:54:05.739Z,74.40
2017-11-27T01:56:33.328Z,74.69
2017-11-27T01:59:01.048Z,74.62
2017-11-27T02:01:29.035Z,74.73
2017-11-27T02:03:56.532Z,74.72
2017-11-27T02:06:24.101Z,74.48
2017-11-27T02:08:51.799Z,74.58
2017-11-27T02:11:19.606Z,74.42
2017-11-27T02:13:47.159Z,74.18
2017-11-27T02:16:14.689Z,73.93
2017-11-27T02:18:42.826Z,73.94
2017-11-27T02:21:10.328Z,73.95
2017-11-27T02:23:37.793Z,74.05
2017-11-27T02:26:05.342Z,74.18
2017-11-27T02:28:32.908Z,73.94
2017-11-27T02:31:00.584Z,73.39
2017-11-27T02:33:28.179Z,73.59
2017-11-27T02:35:55.756Z,73.73
2017-11-27T02:41:18.297Z,73.54
2017-11-27T02:43:46.004Z,73.74
2017-11-27T02:46:13.870Z,73.72
2017-11-27T02:48:41.419Z,73.77
2017-11-27T02:51:08.937Z,73.53
2017-11-27T02:53:36.459Z,73.68
2017-11-27T02:56:04.197Z,73.93
2017-11-27T02:58:32.175Z,74.10
2017-11-27T03:00:59.713Z,73.99
2017-11-27T03:03:27.459Z,74.14
2017-11-27T03:05:55.138Z,74.05
2017-11-27T03:08:22.598Z,74.14
2017-11-27T03:10:50.270Z,74.32
2017-11-27T03:13:18.803Z,74.67
2017-11-27T03:15:51.579Z,74.89
2017-11-27T03:18:19.054Z,74.99
2017-11-27T03:20:46.554Z,74.95
2017-11-27T03:23:14.123Z,75.17
2017-11-27T03:25:41.662Z,75.42
2017-11-27T03:28:09.210Z,75.22
2017-11-27T03:30:36.714Z,75.20
2017-11-27T03:33:04.328Z,75.39
2017-11-27T03:35:32.744Z,75.41
2017-11-27T03:38:00.331Z,75.54
2017-11-27T03:40:27.887Z,75.73
2017-11-27T03:42:55.464Z,75.75
2017-11-27T03:45:22.970Z,76.01
2017-11-27T03:47:50.522Z,76.04
2017-11-27T03:50:18.131Z,75.99
2017-11-27T03:52:45.658Z,76.36
2017-11-27T03:55:13.176Z,76.47
2017-11-27T03:57:43.000Z,76.29
2017-11-27T04:00:10.546Z,76.23
2017-11-27T04:02:38.858Z,76.09
2017-11-27T04:05:06.439Z,76.15
2017-11-27T04:07:33.940Z,75.74
2017-11-27T04:10:01.518Z,75.70
2017-11-27T04:12:29.035Z,75.87
2017-11-27T04:14:56.806Z,75.72
2017-11-27T04:17:24.322Z,75.50
2017-11-27T04:19:52.666Z,75.31
2017-11-27T04:22:20.126Z,75.06
2017-11-27T04:24:47.849Z,75.06
2017-11-27T04:27:16.139Z,75.16
2017-11-27T04:29:43.926Z,74.98
2017-11-27T04:32:11.462Z,75.30
2017-11-27T04:34:39.041Z,75.18
2017-11-27T04:37:06.652Z,75.33
2017-11-27T04:39:34.135Z,75.26
2017-11-27T04:42:01.880Z,75.30
2017-11-27T04:44:29.541Z,75.48
2017-11-27T04:46:57.222Z,75.74
2017-11-27T04:49:24.756Z,75.82
2017-11-27T04:51:52.205Z,76.04
2017-11-27T04:54:19.692Z,76.22
2017-11-27T04:56:47.230Z,76.11
2017-11-27T04:59:14.744Z,76.27
2017-11-27T05:01:42.251Z,76.30
2017-11-27T05:04:09.795Z,76.31
2017-11-27T05:06:37.426Z,76.47
2017-11-27T05:09:04.976Z,76.38
2017-11-27T05:11:32.462Z,76.38
2017-11-27T05:14:00.008Z,76.25
2017-11-27T05:16:28.673Z,76.42
2017-11-27T05:18:56.186Z,76.21
2017-11-27T05:21:23.875Z,76.29
2017-11-27T05:23:51.513Z,76.43
2017-11-27T05:26:19.086Z,76.26
2017-11-27T05:28:46.545Z,76.32
2017-11-27T05:31:14.206Z,76.44
2017-11-27T05:33:56.207Z,76.39
2017-11-27T05:36:23.954Z,76.28
2017-11-27T05:38:51.575Z,76.19
2017-11-27T05:41:19.124Z,76.12
2017-11-27T05:43:46.657Z,76.14
2017-11-27T05:46:14.130Z,76.27
2017-11-27T05:48:41.630Z,76.32
2017-11-27T05:51:09.150Z,76.42
2017-11-27T05:53:36.913Z,76.43
2017-11-27T05:56:04.486Z,76.51
2017-11-27T05:58:32.057Z,76.48
2017-11-27T06:01:00.457Z,76.55
2017-11-27T06:03:29.076Z,76.72
2017-11-27T06:05:56.861Z,76.67
2017-11-27T06:08:24.435Z,76.87
2017-11-27T06:10:52.019Z,76.88
2017-11-27T06:13:19.538Z,76.90
2017-11-27T06:15:47.012Z,76.93
2017-11-27T06:18:14.499Z,77.19
2017-11-27T06:20:41.988Z,77.30
2017-11-27T06:23:09.485Z,77.55
2017-11-27T06:25:37.351Z,77.21
2017-11-27T06:28:05.114Z,77.20
2017-11-27T06:30:32.674Z,79.30
2017-11-27T06:33:00.244Z,76.50
2017-11-27T06:35:33.134Z,76.27
2017-11-27T06:38:00.730Z,76.33
2017-11-27T06:40:28.220Z,76.35
2017-11-27T06:42:55.810Z,76.39
2017-11-27T06:45:23.583Z,76.32
2017-11-27T06:47:51.280Z,76.42
2017-11-27T06:50:19.635Z,76.27
2017-11-27T06:52:48.032Z,76.21
2017-11-27T06:55:15.665Z,76.24
2017-11-27T06:57:43.207Z,76.23
2017-11-27T07:00:10.840Z,76.40
2017-11-27T07:02:38.408Z,76.42
2017-11-27T07:05:05.883Z,76.46
2017-11-27T07:07:34.410Z,76.67
2017-11-27T07:10:02.167Z,76.85
2017-11-27T07:12:29.968Z,76.82
2017-11-27T07:14:57.487Z,76.63
2017-11-27T07:17:25.221Z,76.43
2017-11-27T07:19:52.746Z,76.63
2017-11-27T07:22:20.311Z,76.67
2017-11-27T07:25:02.092Z,76.74
2017-11-27T07:27:29.634Z,76.52
2017-11-27T07:29:57.193Z,76.54
2017-11-27T07:32:24.682Z,76.55
2017-11-27T07:34:52.305Z,76.63
2017-11-27T07:37:25.483Z,76.67
2017-11-27T07:39:53.061Z,76.75
2017-11-27T07:42:20.809Z,76.38
2017-11-27T07:45:02.885Z,76.39
2017-11-27T07:47:30.395Z,76.50
2017-11-27T07:49:57.924Z,76.50
2017-11-27T07:52:25.541Z,76.17
2017-11-27T07:54:53.040Z,75.89
2017-11-27T07:59:53.472Z,75.46
2017-11-27T08:02:21.009Z,75.14
2017-11-27T08:04:49.282Z,75.19
2017-11-27T08:07:17.836Z,75.04
2017-11-27T08:09:45.459Z,75.26
2017-11-27T08:12:13.041Z,74.81
2017-11-27T08:14:40.772Z,74.70
2017-11-27T08:17:08.866Z,74.59
2017-11-27T08:19:36.565Z,74.31
2017-11-27T08:22:04.061Z,74.17
2017-11-27T08:24:31.683Z,73.75
2017-11-27T08:26:59.159Z,73.23
2017-11-27T08:29:26.698Z,73.23
2017-11-27T08:31:54.383Z,72.94
2017-11-27T08:34:22.129Z,72.71
2017-11-27T08:36:49.636Z,72.60
2017-11-27T08:39:17.247Z,71.90
2017-11-27T08:41:44.832Z,71.66
2017-11-27T08:44:12.457Z,71.58
2017-11-27T08:46:39.976Z,71.50
2017-11-27T08:49:07.441Z,71.56
2017-11-27T08:51:35.029Z,71.58
2017-11-27T08:54:16.948Z,71.18
2017-11-27T08:56:44.729Z,71.05
2017-11-27T08:59:12.321Z,70.83
2017-11-27T09:01:39.992Z,70.89
2017-11-27T09:04:15.437Z,71.12
2017-11-27T09:06:51.699Z,70.73
2017-11-27T09:09:20.541Z,70.35
2017-11-27T09:17:48.999Z,69.40
2017-11-27T09:20:17.515Z,69.52
2017-11-27T09:22:45.862Z,69.54
2017-11-27T09:25:13.373Z,70.03
2017-11-27T09:27:41.026Z,70.11
2017-11-27T09:30:08.626Z,69.68
2017-11-27T09:32:36.221Z,69.20
2017-11-27T09:35:04.535Z,68.65
2017-11-27T09:37:32.100Z,68.40
2017-11-27T09:40:00.460Z,68.17
2017-11-27T09:42:28.112Z,68.22
2017-11-27T09:44:56.445Z,68.35
2017-11-27T09:47:24.118Z,67.78
2017-11-27T09:49:51.883Z,67.61
2017-11-27T09:52:19.724Z,67.67
2017-11-27T09:54:48.114Z,67.95
2017-11-27T09:57:16.491Z,67.34
2017-11-27T09:59:45.831Z,67.20
2017-11-27T10:02:13.808Z,67.15
2017-11-27T10:04:42.503Z,66.77
2017-11-27T10:07:09.994Z,66.19
2017-11-27T10:09:38.732Z,65.86
2017-11-27T10:12:07.046Z,65.49
2017-11-27T10:14:44.240Z,65.76
2017-11-27T10:17:12.675Z,65.47
2017-11-27T10:19:40.267Z,65.51
2017-11-27T10:22:22.496Z,65.63
2017-11-27T10:24:50.087Z,65.51
2017-11-27T10:27:17.567Z,65.79
2017-11-27T10:29:47.278Z,65.22
2017-11-27T10:32:14.969Z,65.19
2017-11-27T10:34:42.518Z,64.72
2017-11-27T10:37:10.083Z,64.53
2017-11-27T10:39:38.297Z,64.45
2017-11-27T10:42:06.011Z,64.33
2017-11-27T10:44:38.780Z,64.22
2017-11-27T10:47:06.442Z,63.91
2017-11-27T10:49:33.901Z,63.58
2017-11-27T10:52:01.850Z,62.72
2017-11-27T10:54:29.442Z,62.21
2017-11-27T10:56:56.992Z,62.04
2017-11-27T10:59:24.846Z,62.45
2017-11-27T11:01:52.973Z,62.22
2017-11-27T11:04:20.485Z,61.28
2017-11-27T11:06:48.362Z,60.97
2017-11-27T11:09:16.099Z,60.84
2017-11-27T11:11:43.571Z,61.06
2017-11-27T11:14:11.231Z,61.73
2017-11-27T11:16:39.193Z,62.46
2017-11-27T11:19:06.797Z,62.09
2017-11-27T11:21:34.328Z,62.34
2017-11-27T11:24:01.885Z,62.74
2017-11-27T11:26:29.630Z,62.90
2017-11-27T11:28:57.383Z,62.78
2017-11-27T11:31:25.523Z,62.68
2017-11-27T11:33:53.137Z,62.56
2017-11-27T11:36:20.675Z,62.39
2017-11-27T11:38:48.266Z,62.52
2017-11-27T11:41:15.811Z,62.96
2017-11-27T11:43:43.308Z,62.23
2017-11-27T11:46:11.016Z,61.90
2017-11-27T11:48:38.797Z,61.94
2017-11-27T11:51:06.393Z,62.32
2017-11-27T11:53:34.219Z,62.67
2017-11-27T11:56:11.463Z,62.85
2017-11-27T11:58:40.286Z,62.55
2017-11-27T12:01:07.940Z,62.57
2017-11-27T12:03:35.651Z,62.45
2017-11-27T12:06:03.288Z,62.36
2017-11-27T12:08:30.976Z,61.95
2017-11-27T12:10:59.412Z,61.39
2017-11-27T12:13:27.202Z,61.73
2017-11-27T12:16:01.096Z,61.94
2017-11-27T12:18:28.683Z,62.07
2017-11-27T12:20:56.228Z,62.38
2017-11-27T12:23:23.873Z,62.72
2017-11-27T12:25:51.343Z,62.19
2017-11-27T12:28:19.009Z,62.01
2017-11-27T12:30:50.168Z,62.08
2017-11-27T12:33:18.121Z,62.00
2017-11-27T12:35:46.442Z,62.14
2017-11-27T12:38:14.049Z,62.48
2017-11-27T12:40:43.335Z,62.63
2017-11-27T12:43:10.885Z,62.94
2017-11-27T12:45:38.683Z,62.84
2017-11-27T12:48:06.225Z,63.13
2017-11-27T12:50:34.536Z,63.30
2017-11-27T12:53:02.115Z,63.35
2017-11-27T12:58:24.368Z,63.65
2017-11-27T13:00:56.471Z,63.83
2017-11-27T13:03:24.000Z,64.12
2017-11-27T13:05:51.532Z,63.98
2017-11-27T13:08:19.372Z,64.28
2017-11-27T13:10:47.188Z,64.58
2017-11-27T13:13:14.705Z,64.50
2017-11-27T13:15:42.236Z,64.81
2017-11-27T13:18:11.125Z,64.96
2017-11-27T13:20:39.445Z,65.21
2017-11-27T13:23:08.206Z,65.69
2017-11-27T13:25:35.890Z,65.65
2017-11-27T13:28:04.678Z,65.75
2017-11-27T13:30:32.225Z,65.69
2017-11-27T13:32:59.810Z,65.98
2017-11-27T13:38:17.357Z,66.12
2017-11-27T13:40:45.800Z,66.05
2017-11-27T13:43:13.345Z,66.05
2017-11-27T13:45:47.820Z,66.06
2017-11-27T13:48:18.834Z,66.19
2017-11-27T13:50:46.841Z,66.29
2017-11-27T13:53:14.448Z,66.55
2017-11-27T13:58:13.880Z,67.00
2017-11-27T14:00:42.034Z,67.62
2017-11-27T14:03:09.735Z,67.83
2017-11-27T14:05:42.403Z,67.81
2017-11-27T14:08:10.059Z,68.09
2017-11-27T14:10:37.745Z,68.62
2017-11-27T14:13:05.517Z,68.81
2017-11-27T14:15:42.973Z,68.79
2017-11-27T14:18:10.804Z,69.16
2017-11-27T14:20:38.728Z,69.30
2017-11-27T14:23:06.442Z,69.54
2017-11-27T14:25:34.028Z,69.27
2017-11-27T14:28:02.591Z,69.74
2017-11-27T14:30:30.692Z,69.96
2017-11-27T14:32:58.327Z,70.26
2017-11-27T14:35:26.262Z,70.62
2017-11-27T14:37:53.918Z,70.96
2017-11-27T14:40:21.468Z,71.32
2017-11-27T14:42:49.032Z,71.53
2017-11-27T14:45:16.767Z,71.86
2017-11-27T14:47:44.468Z,71.94
2017-11-27T14:50:12.114Z,72.10
2017-11-27T14:52:39.684Z,72.15
2017-11-27T14:55:07.224Z,72.09
2017-11-27T14:57:35.890Z,72.18
2017-11-27T15:00:03.433Z,72.38
2017-11-27T15:02:30.919Z,72.58
2017-11-27T15:04:58.478Z,72.71
2017-11-27T15:07:26.479Z,72.70
2017-11-27T15:09:54.132Z,72.83
2017-11-27T15:12:22.310Z,72.92
2017-11-27T15:14:50.063Z,73.11
2017-11-27T15:17:17.735Z,73.52
2017-11-27T15:19:45.194Z,73.97
2017-11-27T15:22:12.821Z,73.85
2017-11-27T15:24:45.547Z,74.49
2017-11-27T15:27:13.136Z,75.09
2017-11-27T15:29:40.663Z,74.94
2017-11-27T15:32:08.312Z,75.46
2017-11-27T15:34:40.962Z,75.68
2017-11-27T15:37:08.625Z,76.59
2017-11-27T15:39:36.215Z,76.84
2017-11-27T15:42:03.792Z,76.90
2017-11-27T15:44:31.348Z,77.46
2017-11-27T15:46:58.925Z,77.78
2017-11-27T15:49:29.341Z,78.35
2017-11-27T15:57:07.010Z,79.03
2017-11-27T15:59:34.560Z,78.73
2017-11-27T16:02:03.348Z,78.76
2017-11-27T16:07:24.006Z,79.03
2017-11-27T16:09:51.490Z,79.48
2017-11-27T16:12:20.125Z,79.40
2017-11-27T16:14:49.060Z,79.67
2017-11-27T16:17:23.081Z,79.69
2017-11-27T16:19:51.086Z,79.74
2017-11-27T16:22:21.945Z,79.77
2017-11-27T16:24:56.414Z,79.57
2017-11-27T16:27:28.926Z,79.61
2017-11-27T16:30:04.911Z,79.41
2017-11-27T16:32:32.499Z,79.00
2017-11-27T16:35:00.048Z,78.85
2017-11-27T16:37:33.489Z,78.90
2017-11-27T16:42:47.650Z,78.88
2017-11-27T16:45:15.332Z,78.63
2017-11-27T16:47:43.129Z,78.60
2017-11-27T16:50:10.752Z,78.24
2017-11-27T16:52:38.802Z,77.88
2017-11-27T16:55:06.435Z,78.03
2017-11-27T16:57:34.100Z,77.38
2017-11-27T17:00:01.866Z,77.53
2017-11-27T17:02:30.264Z,77.50
2017-11-27T17:04:58.892Z,77.50
2017-11-27T17:07:26.397Z,77.22
2017-11-27T17:09:54.227Z,77.25
2017-11-27T17:12:21.847Z,77.29
2017-11-27T17:14:49.466Z,77.30
2017-11-27T17:17:17.094Z,77.25
2017-11-27T17:19:44.584Z,77.50
2017-11-27T17:22:12.080Z,77.83
2017-11-27T17:24:40.363Z,77.73
2017-11-27T17:27:07.944Z,77.86
2017-11-27T17:29:35.420Z,77.96
2017-11-27T17:32:03.032Z,78.38
2017-11-27T17:34:30.621Z,78.17
2017-11-27T17:36:58.134Z,78.39
2017-11-27T17:39:25.706Z,78.51
2017-11-27T17:41:53.389Z,78.61
2017-11-27T17:44:26.354Z,78.81
2017-11-27T17:46:54.108Z,78.82
2017-11-27T17:49:21.621Z,79.21
2017-11-27T17:51:49.226Z,79.12
2017-11-27T17:54:26.551Z,79.09
2017-11-27T17:56:54.380Z,79.18
2017-11-27T17:59:22.704Z,79.03
2017-11-27T18:01:51.109Z,78.84
2017-11-27T18:04:18.702Z,79.00
2017-11-27T18:06:46.377Z,79.03
2017-11-27T18:09:14.045Z,78.75
2017-11-27T18:11:41.501Z,78.91
2017-11-27T18:14:18.906Z,79.11
2017-11-27T18:16:46.534Z,78.89
2017-11-27T18:19:14.158Z,78.75
2017-11-27T18:21:41.907Z,78.68
2017-11-27T18:24:09.682Z,78.31
2017-11-27T18:26:37.248Z,78.58
2017-11-27T18:29:04.729Z,78.28
2017-11-27T18:31:32.954Z,78.11
2017-11-27T18:34:03.678Z,78.04
2017-11-27T18:36:31.661Z,77.86
2017-11-27T18:39:00.752Z,77.88
2017-11-27T18:41:29.128Z,77.51
2017-11-27T18:43:57.645Z,77.46
2017-11-27T18:46:26.330Z,77.29
2017-11-27T18:51:27.825Z,77.07
2017-11-27T18:53:56.429Z,76.72
2017-11-27T18:56:24.477Z,76.54
2017-11-27T18:58:52.335Z,76.67
2017-11-27T19:01:29.289Z,76.29
2017-11-27T19:06:35.061Z,76.16
2017-11-27T19:11:43.015Z,76.08
2017-11-27T19:16:43.229Z,75.22
2017-11-27T19:19:10.901Z,75.31
2017-11-27T19:21:38.391Z,75.54
2017-11-27T19:24:05.966Z,75.17
2017-11-27T19:29:07.073Z,75.00
2017-11-27T19:31:35.164Z,74.75
2017-11-27T19:34:03.267Z,74.81
2017-11-27T19:36:32.004Z,74.45
2017-11-27T19:38:59.746Z,74.62
2017-11-27T19:41:27.464Z,74.49
2017-11-27T19:43:55.008Z,74.34
2017-11-27T19:46:22.578Z,74.19
2017-11-27T19:48:50.309Z,74.12
2017-11-27T19:51:17.880Z,74.19
2017-11-27T19:53:45.480Z,74.43
2017-11-27T19:56:12.977Z,74.34
2017-11-27T19:58:40.535Z,74.37
2017-11-27T20:01:08.002Z,74.77
2017-11-27T20:03:35.517Z,74.80
2017-11-27T20:06:03.566Z,74.98
2017-11-27T20:08:31.317Z,75.17
2017-11-27T20:10:58.930Z,75.17
2017-11-27T20:13:26.700Z,75.04
2017-11-27T20:16:03.958Z,75.30
2017-11-27T20:18:31.604Z,75.00
2017-11-27T20:21:00.547Z,75.07
2017-11-27T20:26:00.079Z,74.49
2017-11-27T20:28:29.845Z,74.34
2017-11-27T20:30:57.405Z,74.29
2017-11-27T20:33:25.008Z,74.00
2017-11-27T20:35:52.704Z,73.70
2017-11-27T20:38:20.333Z,73.92
2017-11-27T20:40:47.841Z,73.88
2017-11-27T20:43:15.500Z,73.85
2017-11-27T20:45:52.699Z,73.70
2017-11-27T20:48:20.272Z,73.76
2017-11-27T20:50:47.875Z,73.72
2017-11-27T20:53:15.354Z,73.99
2017-11-27T20:55:52.597Z,73.99
2017-11-27T20:58:20.322Z,73.66
2017-11-27T21:00:47.846Z,73.49
2017-11-27T21:03:15.468Z,73.39
2017-11-27T21:05:43.487Z,73.32
2017-11-27T21:08:11.199Z,73.44
2017-11-27T21:10:38.731Z,73.32
2017-11-27T21:13:06.430Z,73.37
2017-11-27T21:15:34.106Z,72.59
2017-11-27T21:18:01.756Z,72.49
2017-11-27T21:20:29.363Z,72.60
2017-11-27T21:22:56.895Z,72.61
2017-11-27T21:25:25.460Z,72.44
2017-11-27T21:27:53.034Z,72.66
2017-11-27T21:30:20.554Z,72.35
2017-11-27T21:32:48.284Z,72.40
2017-11-27T21:35:16.806Z,72.10
2017-11-27T21:37:44.615Z,72.15
2017-11-27T21:40:12.953Z,72.35
2017-11-27T21:42:40.610Z,72.01
2017-11-27T21:45:08.091Z,71.84
2017-11-27T21:47:36.395Z,72.00
2017-11-27T21:50:03.881Z,72.15
2017-11-27T21:52:31.412Z,72.12
2017-11-27T21:54:59.083Z,72.14
2017-11-27T21:57:26.639Z,72.10
2017-11-27T21:59:54.203Z,72.24
2017-11-27T22:02:21.800Z,72.31
2017-11-27T22:04:49.316Z,72.28
2017-11-27T22:07:17.268Z,72.06
2017-11-27T22:09:44.828Z,72.33
2017-11-27T22:14:46.644Z,71.89
2017-11-27T22:17:14.951Z,72.04
2017-11-27T22:19:42.691Z,72.12
2017-11-27T22:22:11.442Z,72.21
2017-11-27T22:24:40.432Z,72.35
2017-11-27T22:27:08.070Z,72.24
2017-11-27T22:29:35.704Z,72.40
2017-11-27T22:32:04.238Z,72.36
2017-11-27T22:34:31.976Z,72.41
2017-11-27T22:36:59.554Z,72.16
2017-11-27T22:39:27.066Z,72.29
2017-11-27T22:41:54.606Z,72.31
2017-11-27T22:44:22.099Z,72.35
2017-11-27T22:46:50.568Z,72.34
2017-11-27T22:49:18.244Z,72.22
2017-11-27T22:51:45.880Z,72.25
2017-11-27T22:54:13.462Z,72.07
2017-11-27T22:56:41.061Z,72.23
2017-11-27T22:59:08.585Z,72.41
2017-11-27T23:01:36.117Z,72.48
2017-11-27T23:04:03.596Z,72.21
2017-11-27T23:06:31.132Z,72.13
2017-11-27T23:08:58.703Z,72.26
2017-11-27T23:11:26.253Z,72.08
2017-11-27T23:13:53.893Z,72.05
2017-11-27T23:16:21.610Z,71.94
2017-11-27T23:18:49.206Z,72.09
2017-11-27T23:21:16.735Z,72.32
2017-11-27T23:23:44.217Z,72.19
2017-11-27T23:26:11.720Z,72.13
2017-11-27T23:28:39.227Z,72.16
2017-11-27T23:31:07.295Z,72.16
2017-11-27T23:33:35.101Z,72.26
2017-11-27T23:36:02.633Z,72.33
2017-11-27T23:38:30.123Z,72.29
2017-11-27T23:40:57.582Z,72.50
2017-11-27T23:43:25.045Z,72.10
2017-11-27T23:45:52.515Z,72.15
2017-11-27T23:48:20.008Z,72.25
2017-11-27T23:50:47.833Z,72.27
2017-11-27T23:53:15.419Z,72.20
2017-11-27T23:55:42.945Z,72.28
2017-11-27T23:58:10.446Z,74.61
